Time;durP1;ratioP1;P1;durP2;ratioP2;P2;SDS_P1;SDS_P2;PMS_P1;PMS_P2;Temp;Humidity;BMP_temperature;BMP_pressure;BME280_temperature;BME280_humidity;BME280_pressure;Samples;Min_cycle;Max_cycle;Signal;HPM_P1;HPM_P2
2022/04/14 00:01:11;;;;;;;34.40;22.27;;;12.60;99.90;;;;;;5059020;28;19916;-67
2022/04/14 00:03:37;;;;;;;;;;;12.60;99.90;;;;;;5058650;28;20036;-67
2022/04/14 00:06:02;;;;;;;40.88;25.67;;;12.60;99.90;;;;;;5059811;28;20408;-67
2022/04/14 00:08:28;;;;;;;;;;;12.50;99.90;;;;;;5059830;28;20052;-68
2022/04/14 00:10:53;;;;;;;34.58;21.45;;;12.50;99.90;;;;;;5059624;28;19916;-69
2022/04/14 00:13:19;;;;;;;;;;;12.60;99.90;;;;;;5058133;28;20580;-68
2022/04/14 00:15:45;;;;;;;35.88;22.30;;;12.50;99.90;;;;;;5055727;28;19917;-68
2022/04/14 00:18:10;;;;;;;;;;;12.50;99.90;;;;;;5049667;28;20033;-68
2022/04/14 00:20:36;;;;;;;38.55;22.75;;;12.50;99.90;;;;;;5046129;28;19923;-68
2022/04/14 00:23:01;;;;;;;;;;;12.50;99.90;;;;;;5044968;28;20067;-66
2022/04/14 00:25:27;;;;;;;33.13;20.25;;;12.40;99.90;;;;;;5044671;28;20055;-66
2022/04/14 00:27:53;;;;;;;;;;;12.40;99.90;;;;;;5045055;28;20520;-68
2022/04/14 00:30:18;;;;;;;39.75;21.60;;;12.40;99.90;;;;;;5044785;28;19920;-68
2022/04/14 00:32:44;;;;;;;;;;;12.40;99.90;;;;;;5045141;28;20653;-68
2022/04/14 00:35:09;;;;;;;42.30;25.65;;;12.40;99.90;;;;;;5044354;28;19924;-68
2022/04/14 00:37:35;;;;;;;;;;;12.20;99.90;;;;;;5044813;28;20711;-68
2022/04/14 00:40:01;;;;;;;35.88;21.40;;;12.20;99.90;;;;;;5044829;28;19950;-68
2022/04/14 00:42:26;;;;;;;;;;;12.30;99.90;;;;;;5046242;28;20099;-68
2022/04/14 00:44:52;;;;;;;40.67;22.92;;;12.30;99.90;;;;;;5040771;28;20513;-68
2022/04/14 00:47:18;;;;;;;;;;;12.30;99.90;;;;;;5045425;28;20493;-67
2022/04/14 00:49:44;;;;;;;42.15;25.23;;;12.20;99.90;;;;;;5043956;28;20648;-68
2022/04/14 00:52:10;;;;;;;;;;;12.20;99.90;;;;;;5042349;28;20037;-67
2022/04/14 00:54:35;;;;;;;36.63;22.63;;;12.10;99.90;;;;;;5041153;28;19927;-67
2022/04/14 00:57:02;;;;;;;;;;;12.00;99.90;;;;;;5044737;28;20068;-67
2022/04/14 00:59:28;;;;;;;32.83;20.30;;;12.00;99.90;;;;;;5046139;28;19917;-67
2022/04/14 01:01:55;;;;;;;38.65;22.08;;;12.00;99.90;;;;;;5044660;28;20098;-67
2022/04/14 01:04:21;;;;;;;35.47;21.58;;;11.90;99.90;;;;;;5043655;28;20652;-67
2022/04/14 01:06:49;;;;;;;;;;;12.00;99.90;;;;;;5043079;28;20120;-67
2022/04/14 01:09:18;;;;;;;37.08;21.73;;;11.90;99.90;;;;;;5044449;28;19928;-68
2022/04/14 01:11:49;;;;;;;33.10;17.98;;;11.90;99.90;;;;;;5044783;28;20091;-67
2022/04/14 01:14:36;;;;;;;34.33;18.70;;;11.80;99.90;;;;;;5044390;28;20033;-67
2022/04/14 01:17:07;;;;;;;33.92;18.25;;;11.70;99.90;;;;;;5043975;28;20052;-67
2022/04/14 01:19:34;;;;;;;30.80;15.55;;;11.70;99.90;;;;;;5044821;28;20045;-68
2022/04/14 01:22:47;;;;;;;26.40;15.60;;;11.50;99.90;;;;;;5043217;28;20045;-67
2022/04/14 01:25:13;;;;;;;26.95;15.38;;;11.60;99.90;;;;;;5020166;28;20041;-67
2022/04/14 01:27:38;;;;;;;;;;;11.60;99.90;;;;;;5019235;28;20106;-66
2022/04/14 01:30:05;;;;;;;21.70;13.02;;;11.70;99.90;;;;;;5032686;28;19986;-66
2022/04/14 01:32:30;;;;;;;17.63;12.90;;;11.60;99.90;;;;;;5044700;28;20041;-66
2022/04/14 01:34:56;;;;;;;;;;;11.70;99.90;;;;;;5041196;28;20124;-67
2022/04/14 01:37:22;;;;;;;27.75;15.50;;;11.70;99.90;;;;;;5042559;28;19964;-68
2022/04/14 01:39:47;;;;;;;;;;;11.70;99.90;;;;;;5044684;28;20128;-67
2022/04/14 01:42:13;;;;;;;25.63;14.25;;;11.60;99.90;;;;;;5044356;28;19924;-67
2022/04/14 01:44:39;;;;;;;;;;;11.60;99.90;;;;;;5040917;28;20045;-66
2022/04/14 01:47:04;;;;;;;21.88;14.15;;;11.70;99.90;;;;;;5041139;28;19928;-66
2022/04/14 01:49:30;;;;;;;;;;;11.70;99.90;;;;;;5039972;28;20505;-66
2022/04/14 01:51:56;;;;;;;18.58;11.52;;;11.70;99.90;;;;;;5044255;28;20461;-66
2022/04/14 01:54:21;;;;;;;;;;;11.70;99.90;;;;;;5043382;28;20372;-66
2022/04/14 01:56:47;;;;;;;21.63;12.70;;;11.60;99.90;;;;;;5044250;28;19916;-66
2022/04/14 01:59:13;;;;;;;19.88;12.50;;;11.60;99.90;;;;;;5043882;28;20037;-66
2022/04/14 02:01:38;;;;;;;;;;;11.60;99.90;;;;;;5055196;28;20090;-66
2022/04/14 02:04:05;;;;;;;22.95;13.73;;;11.50;99.90;;;;;;5060369;28;19917;-66
2022/04/14 02:06:31;;;;;;;22.73;14.25;;;11.50;99.90;;;;;;5057589;28;20684;-66
2022/04/14 02:08:57;;;;;;;22.95;14.73;;;11.60;99.90;;;;;;5060403;28;20105;-66
2022/04/14 02:11:23;;;;;;;24.27;13.32;;;11.60;99.90;;;;;;5061967;28;20059;-65
2022/04/14 02:13:49;;;;;;;30.45;14.13;;;11.60;99.90;;;;;;5061695;28;20047;-66
2022/04/14 02:16:15;;;;;;;;;;;11.50;99.90;;;;;;5060014;28;20036;-67
2022/04/14 02:18:41;;;;;;;24.23;13.77;;;11.60;99.90;;;;;;5060681;28;19928;-67
2022/04/14 02:21:06;;;;;;;;;;;11.60;99.90;;;;;;5063700;28;20040;-67
2022/04/14 02:23:32;;;;;;;25.58;13.98;;;11.60;99.90;;;;;;5060640;28;19947;-67
2022/04/14 02:25:57;;;;;;;;;;;11.60;99.90;;;;;;5062267;28;20071;-67
2022/04/14 02:28:23;;;;;;;19.05;13.00;;;11.60;99.90;;;;;;5052496;28;19916;-67
2022/04/14 02:30:49;;;;;;;;;;;11.60;99.90;;;;;;5062661;28;20630;-67
2022/04/14 02:33:15;;;;;;;20.00;13.55;;;11.60;99.90;;;;;;5062473;28;19920;-66
2022/04/14 02:35:40;;;;;;;;;;;11.50;99.90;;;;;;5063656;28;20051;-66
2022/04/14 02:38:06;;;;;;;20.63;12.82;;;11.50;99.90;;;;;;5062790;28;20608;-66
2022/04/14 02:40:35;;;;;;;;;;;11.40;99.90;;;;;;5063261;28;20044;-66
2022/04/14 02:43:00;;;;;;;22.88;13.27;;;11.40;99.90;;;;;;5062995;28;20606;-66
2022/04/14 02:45:26;;;;;;;;;;;11.30;99.90;;;;;;5063522;28;20041;-66
2022/04/14 02:47:53;;;;;;;20.65;13.35;;;11.40;99.90;;;;;;5062023;28;19916;-66
2022/04/14 02:50:20;;;;;;;22.98;12.43;;;11.40;99.90;;;;;;5062996;28;20115;-65
2022/04/14 02:52:47;;;;;;;22.13;14.27;;;11.20;99.90;;;;;;5062021;28;20805;-68
2022/04/14 02:55:12;;;;;;;23.90;14.00;;;11.30;99.90;;;;;;5061487;28;20093;-68
2022/04/14 02:57:38;;;;;;;;;;;11.30;99.90;;;;;;5062944;28;20033;-67
2022/04/14 03:00:06;;;;;;;19.55;11.75;;;11.20;99.90;;;;;;5061264;28;20402;-68
2022/04/14 03:02:33;;;;;;;21.40;11.35;;;11.20;99.90;;;;;;5060911;28;20538;-68
2022/04/14 03:04:58;;;;;;;19.92;11.40;;;11.20;99.90;;;;;;5060756;28;20039;-70
2022/04/14 03:07:24;;;;;;;;;;;11.30;99.90;;;;;;5063661;28;20048;-68
2022/04/14 03:09:50;;;;;;;16.73;10.15;;;11.20;99.90;;;;;;5057289;28;19920;-68
2022/04/14 03:12:16;;;;;;;;;;;11.20;99.90;;;;;;5054890;28;20081;-69
2022/04/14 03:14:43;;;;;;;19.63;11.48;;;11.30;99.90;;;;;;5059408;28;19942;-68
2022/04/14 03:17:09;;;;;;;18.77;11.80;;;11.30;99.90;;;;;;5060696;28;20181;-67
2022/04/14 03:19:36;;;;;;;;;;;11.30;99.90;;;;;;5063549;28;20698;-67
2022/04/14 03:22:02;;;;;;;16.15;10.88;;;11.30;99.90;;;;;;5062649;28;20005;-67
2022/04/14 03:24:27;;;;;;;;;;;11.40;99.90;;;;;;5060077;28;20504;-67
2022/04/14 03:26:53;;;;;;;22.33;11.20;;;11.40;99.90;;;;;;5061662;28;19920;-68
2022/04/14 03:29:18;;;;;;;;;;;11.40;99.90;;;;;;5063892;28;20043;-68
2022/04/14 03:31:44;;;;;;;22.98;10.18;;;11.40;99.90;;;;;;5061165;28;19916;-67
2022/04/14 03:34:10;;;;;;;;;;;11.40;99.90;;;;;;5060556;28;20760;-67
2022/04/14 03:36:35;;;;;;;14.63;10.13;;;11.30;99.90;;;;;;5060412;28;19970;-67
2022/04/14 03:39:01;;;;;;;;;;;11.30;99.90;;;;;;5062790;28;20411;-68
2022/04/14 03:41:26;;;;;;;18.67;10.73;;;11.40;99.90;;;;;;5061344;28;19960;-68
2022/04/14 03:43:52;;;;;;;;;;;11.40;99.90;;;;;;5060760;28;20044;-68
2022/04/14 03:46:19;;;;;;;15.10;10.32;;;11.40;99.90;;;;;;5052049;28;20430;-67
2022/04/14 03:48:46;;;;;;;22.45;11.55;;;11.50;99.90;;;;;;5062733;28;20036;-68
2022/04/14 03:51:14;;;;;;;16.15;10.23;;;11.50;99.90;;;;;;5062182;28;20036;-67
2022/04/14 03:53:44;;;;;;;17.50;10.38;;;11.40;99.90;;;;;;5063824;28;20123;-67
2022/04/14 03:56:10;;;;;;;17.73;10.38;;;11.40;99.90;;;;;;5060512;28;20079;-68
2022/04/14 03:58:36;;;;;;;20.77;10.80;;;11.40;99.90;;;;;;5067087;28;20036;-68
2022/04/14 04:01:02;;;;;;;;;;;11.30;99.90;;;;;;5066294;28;20094;-68
2022/04/14 04:03:28;;;;;;;21.05;11.23;;;11.40;99.90;;;;;;5063960;28;20015;-68
2022/04/14 04:05:54;;;;;;;19.42;11.35;;;11.40;99.90;;;;;;5063244;28;20040;-68
2022/04/14 04:08:20;;;;;;;;;;;11.30;99.90;;;;;;5062111;28;20082;-68
2022/04/14 04:10:46;;;;;;;23.05;11.25;;;11.30;99.90;;;;;;5066495;28;19923;-68
2022/04/14 04:13:13;;;;;;;;;;;11.30;99.90;;;;;;5066212;28;20072;-68
2022/04/14 04:15:38;;;;;;;20.70;11.88;;;11.30;99.90;;;;;;5065745;28;19959;-67
2022/04/14 04:18:07;;;;;;;;;;;11.30;99.90;;;;;;5067100;28;20071;-69
2022/04/14 04:20:33;;;;;;;17.35;9.93;;;11.30;99.90;;;;;;5065709;28;19934;-68
2022/04/14 04:23:02;;;;;;;22.98;10.70;;;11.30;99.90;;;;;;5064701;28;20899;-69
2022/04/14 04:25:28;;;;;;;18.92;10.30;;;11.30;99.90;;;;;;5083791;28;20484;-70
2022/04/14 04:27:53;;;;;;;;;;;11.30;99.90;;;;;;5058775;28;20040;-70
2022/04/14 04:30:19;;;;;;;19.85;10.18;;;11.40;99.90;;;;;;5064078;28;19916;-69
2022/04/14 04:32:44;;;;;;;;;;;11.40;99.90;;;;;;5087734;28;20713;-69
2022/04/14 04:35:11;;;;;;;15.93;10.50;;;11.40;99.90;;;;;;5058688;28;19924;-69
2022/04/14 04:37:36;;;;;;;19.50;11.57;;;11.40;99.90;;;;;;5064477;28;20043;-70
2022/04/14 04:40:02;;;;;;;;;;;11.40;99.90;;;;;;5065479;28;20041;-68
2022/04/14 04:42:28;;;;;;;20.35;11.15;;;11.30;99.90;;;;;;5065946;28;19920;-67
2022/04/14 04:44:53;;;;;;;16.52;9.63;;;11.30;99.90;;;;;;5059468;28;20115;-68
2022/04/14 04:47:20;;;;;;;;;;;11.30;99.90;;;;;;5060052;28;20901;-68
2022/04/14 04:49:47;;;;;;;16.58;10.85;;;11.30;99.90;;;;;;5061313;28;19916;-67
2022/04/14 04:52:13;;;;;;;16.45;10.75;;;11.30;99.90;;;;;;5062139;28;20582;-70
2022/04/14 04:54:38;;;;;;;;;;;11.20;99.90;;;;;;5059168;28;20044;-68
2022/04/14 04:57:04;;;;;;;21.98;10.48;;;11.20;99.90;;;;;;5061532;28;19931;-69
2022/04/14 04:59:31;;;;;;;18.80;10.88;;;11.20;99.90;;;;;;5062888;28;20056;-68
2022/04/14 05:01:56;;;;;;;17.52;10.25;;;11.30;99.90;;;;;;5061165;28;20151;-67
2022/04/14 05:04:22;;;;;;;;;;;11.30;99.90;;;;;;5059922;28;20176;-68
2022/04/14 05:06:47;;;;;;;21.08;9.98;;;11.30;99.90;;;;;;5060177;28;20025;-68
2022/04/14 05:09:13;;;;;;;;;;;11.30;99.90;;;;;;5060298;28;20036;-70
2022/04/14 05:11:38;;;;;;;14.80;10.18;;;11.40;99.90;;;;;;5092951;28;19916;-69
2022/04/14 05:14:04;;;;;;;;;;;11.40;99.90;;;;;;5054292;28;20157;-69
2022/04/14 05:16:30;;;;;;;20.75;9.98;;;11.40;99.90;;;;;;5064681;28;20008;-69
2022/04/14 05:18:55;;;;;;;;;;;11.40;99.90;;;;;;5064887;28;21284;-68
2022/04/14 05:21:21;;;;;;;16.60;10.23;;;11.40;99.90;;;;;;5065909;28;19920;-69
2022/04/14 05:23:46;;;;;;;;;;;11.30;99.90;;;;;;5062679;28;20041;-72
2022/04/14 05:26:12;;;;;;;17.17;10.18;;;11.30;99.90;;;;;;5062207;28;19920;-70
2022/04/14 05:28:37;;;;;;;;;;;11.30;99.90;;;;;;5065128;28;20045;-66
2022/04/14 05:31:03;;;;;;;19.60;11.57;;;11.30;99.90;;;;;;5063527;28;19919;-70
2022/04/14 05:33:29;;;;;;;;;;;11.30;99.90;;;;;;5065553;28;20047;-66
2022/04/14 05:35:55;;;;;;;23.23;11.23;;;11.30;99.90;;;;;;5064380;28;19939;-65
2022/04/14 05:38:20;;;;;;;;;;;11.30;99.90;;;;;;5065321;28;20032;-64
2022/04/14 05:40:46;;;;;;;16.45;10.13;;;11.30;99.90;;;;;;5077211;28;20009;-65
2022/04/14 05:43:15;;;;;;;;;;;11.30;99.90;;;;;;5070744;28;20037;-66
2022/04/14 05:45:44;;;;;;;17.27;10.07;;;11.20;99.90;;;;;;5054097;28;19931;-67
2022/04/14 05:48:12;;;;;;;16.33;9.90;;;11.20;99.90;;;;;;5064273;28;20032;-65
2022/04/14 05:50:38;;;;;;;15.13;9.73;;;11.10;99.90;;;;;;5063829;28;20752;-68
2022/04/14 05:53:03;;;;;;;;;;;11.10;99.90;;;;;;5063936;28;20062;-68
2022/04/14 05:55:29;;;;;;;15.82;8.57;;;11.00;99.90;;;;;;5081307;28;19928;-70
2022/04/14 05:57:55;;;;;;;10.07;7.28;;;11.00;99.90;;;;;;5064505;28;20043;-70
2022/04/14 06:00:20;;;;;;;;;;;11.00;99.90;;;;;;5061944;28;20041;-71
2022/04/14 06:02:46;;;;;;;12.07;7.97;;;11.00;99.90;;;;;;5064023;28;19920;-71
2022/04/14 06:05:12;;;;;;;;;;;10.90;99.90;;;;;;5073412;28;20131;-71
2022/04/14 06:07:38;;;;;;;11.20;7.20;;;11.00;99.90;;;;;;5065605;28;19920;-66
2022/04/14 06:10:05;;;;;;;15.88;7.82;;;11.10;99.90;;;;;;5073086;28;20445;-69
2022/04/14 06:12:30;;;;;;;11.38;7.45;;;11.20;99.90;;;;;;5072152;28;20119;-69
2022/04/14 06:14:56;;;;;;;;;;;11.20;99.90;;;;;;5062958;28;20456;-70
2022/04/14 06:17:22;;;;;;;12.07;8.02;;;11.20;99.90;;;;;;5063496;28;19920;-71
2022/04/14 06:19:47;;;;;;;;;;;11.20;99.90;;;;;;5063973;28;20041;-70
2022/04/14 06:22:13;;;;;;;11.20;7.53;;;11.30;99.90;;;;;;5063647;28;19963;-71
2022/04/14 06:24:38;;;;;;;;;;;11.30;99.90;;;;;;5062151;28;20037;-70
2022/04/14 06:27:06;;;;;;;10.70;7.47;;;11.30;99.90;;;;;;5059549;28;19999;-70
2022/04/14 06:29:31;;;;;;;15.75;8.15;;;11.30;99.90;;;;;;5063608;28;20686;-71
2022/04/14 06:31:57;;;;;;;;;;;11.30;99.90;;;;;;5064504;28;20127;-70
2022/04/14 06:34:23;;;;;;;13.85;8.85;;;11.30;99.90;;;;;;5053087;28;19920;-71
2022/04/14 06:36:49;;;;;;;15.30;8.68;;;11.30;99.90;;;;;;5062584;28;20055;-70
2022/04/14 06:39:15;;;;;;;;;;;11.30;99.90;;;;;;5063886;28;20445;-70
2022/04/14 06:41:44;;;;;;;13.13;8.35;;;11.30;99.90;;;;;;5062557;28;19920;-71
2022/04/14 06:44:10;;;;;;;11.23;7.88;;;11.30;99.90;;;;;;5061061;28;20043;-70
2022/04/14 06:46:35;;;;;;;;;;;11.30;99.90;;;;;;5072089;28;20036;-70
2022/04/14 06:49:01;;;;;;;14.30;8.60;;;11.30;99.90;;;;;;5076066;28;19955;-70
2022/04/14 06:51:26;;;;;;;;;;;11.40;99.90;;;;;;5081188;28;20062;-69
2022/04/14 06:53:52;;;;;;;14.32;9.18;;;11.40;99.90;;;;;;5069856;28;19916;-70
2022/04/14 06:56:17;;;;;;;;;;;11.30;99.90;;;;;;5064198;28;20134;-70
2022/04/14 06:58:43;;;;;;;13.90;7.97;;;11.20;99.90;;;;;;5063953;28;19959;-70
2022/04/14 07:01:09;;;;;;;;;;;11.20;99.90;;;;;;5063127;28;20056;-70
2022/04/14 07:03:35;;;;;;;11.73;7.55;;;11.30;99.90;;;;;;5071740;28;19927;-70
2022/04/14 07:06:00;;;;;;;;;;;11.30;99.90;;;;;;5061801;28;20472;-70
2022/04/14 07:08:29;;;;;;;14.98;9.07;;;11.30;99.90;;;;;;5060540;28;19947;-68
2022/04/14 07:10:55;;;;;;;15.70;9.25;;;11.30;99.90;;;;;;5059595;28;20111;-69
2022/04/14 07:13:21;;;;;;;;;;;11.30;99.90;;;;;;5062702;28;20115;-68
2022/04/14 07:15:46;;;;;;;12.20;8.32;;;11.30;99.90;;;;;;5062445;28;20005;-69
2022/04/14 07:18:12;;;;;;;;;;;11.30;99.90;;;;;;5064512;28;20071;-68
2022/04/14 07:20:38;;;;;;;13.02;8.32;;;11.40;99.90;;;;;;5064323;28;19963;-68
2022/04/14 07:23:05;;;;;;;15.93;9.55;;;11.40;99.90;;;;;;5065917;28;20748;-68
2022/04/14 07:25:33;;;;;;;15.05;9.68;;;11.40;99.90;;;;;;5071552;28;20044;-71
2022/04/14 07:27:59;;;;;;;12.98;8.48;;;11.50;99.90;;;;;;5063573;28;20040;-71
2022/04/14 07:30:26;;;;;;;17.67;10.00;;;11.50;99.90;;;;;;5062039;28;20047;-72
2022/04/14 07:32:53;;;;;;;15.73;9.23;;;11.60;99.90;;;;;;5065562;28;20113;-72
2022/04/14 07:35:22;;;;;;;12.20;7.50;;;11.60;99.90;;;;;;5065728;28;20036;-69
2022/04/14 07:37:49;;;;;;;12.27;7.28;;;11.60;99.90;;;;;;5066268;28;20044;-68
2022/04/14 07:40:14;;;;;;;11.80;7.38;;;11.60;99.90;;;;;;5066425;28;20127;-68
2022/04/14 07:42:41;;;;;;;;;;;11.50;99.90;;;;;;5065770;28;20188;-69
2022/04/14 07:45:09;;;;;;;12.32;7.28;;;11.50;99.90;;;;;;5064706;28;20011;-69
2022/04/14 07:47:35;;;;;;;14.52;7.75;;;11.50;99.90;;;;;;5064369;28;20063;-69
2022/04/14 07:50:01;;;;;;;13.80;8.48;;;11.50;99.90;;;;;;5065382;28;20040;-68
2022/04/14 07:52:26;;;;;;;;;;;11.50;99.90;;;;;;5064924;28;20046;-68
2022/04/14 07:54:52;;;;;;;13.82;8.32;;;11.50;99.90;;;;;;5064110;28;20631;-69
2022/04/14 07:57:18;;;;;;;;;;;11.50;99.90;;;;;;5065689;28;20033;-69
2022/04/14 07:59:44;;;;;;;13.75;9.23;;;11.60;99.90;;;;;;5063830;28;20627;-69
2022/04/14 08:02:10;;;;;;;;;;;11.70;99.90;;;;;;5064551;28;20040;-69
2022/04/14 08:04:35;;;;;;;14.35;7.85;;;11.60;99.90;;;;;;5055801;28;19917;-69
2022/04/14 08:07:01;;;;;;;;;;;11.70;99.90;;;;;;5060847;28;20036;-68
2022/04/14 08:09:27;;;;;;;10.90;7.45;;;11.70;99.90;;;;;;5064604;28;19924;-69
2022/04/14 08:11:52;;;;;;;;;;;11.60;99.90;;;;;;5066103;28;20071;-72
2022/04/14 08:14:18;;;;;;;16.27;8.90;;;11.60;99.90;;;;;;5062159;28;20003;-73
2022/04/14 08:16:43;;;;;;;;;;;11.50;99.90;;;;;;5061726;28;20687;-70
2022/04/14 08:19:09;;;;;;;13.45;9.32;;;11.60;99.90;;;;;;5064534;28;19923;-71
2022/04/14 08:21:35;;;;;;;;;;;11.60;99.90;;;;;;5065366;28;20220;-68
2022/04/14 08:24:01;;;;;;;13.25;8.95;;;11.50;99.90;;;;;;5068077;28;19926;-69
2022/04/14 08:26:27;;;;;;;18.10;9.35;;;11.60;99.90;;;;;;5065741;28;20067;-69
2022/04/14 08:28:55;;;;;;;;;;;11.60;99.90;;;;;;5064539;28;20056;-68
2022/04/14 08:31:21;;;;;;;;;;;11.70;99.90;;;;;;5066568;28;20019;-69
2022/04/14 08:33:49;;;;;;;14.50;8.43;;;11.70;99.90;;;;;;5060191;28;19916;-71
2022/04/14 08:36:16;;;;;;;15.10;9.93;;;11.80;99.90;;;;;;5064255;28;20052;-69
2022/04/14 08:38:47;;;;;;;14.20;9.43;;;11.80;99.90;;;;;;5064217;28;20040;-71
2022/04/14 08:41:14;;;;;;;15.98;9.77;;;11.80;99.90;;;;;;5064210;28;20028;-71
2022/04/14 08:43:51;;;;;;;15.88;10.20;;;12.00;99.90;;;;;;5061833;28;20048;-72
2022/04/14 08:46:19;;;;;;;14.90;9.93;;;12.00;99.90;;;;;;5058839;28;20090;-71
2022/04/14 08:48:50;;;;;;;14.38;9.95;;;12.00;99.90;;;;;;5059962;28;20123;-71
2022/04/14 08:51:17;;;;;;;13.75;9.82;;;12.10;99.90;;;;;;5063397;28;20044;-71
2022/04/14 08:53:44;;;;;;;15.00;10.88;;;12.30;99.90;;;;;;5061065;28;21103;-70
2022/04/14 08:56:10;;;;;;;14.95;10.02;;;12.40;99.90;;;;;;5061870;28;20036;-71
2022/04/14 08:58:37;;;;;;;23.77;12.93;;;12.50;99.90;;;;;;5061349;28;20514;-71
2022/04/14 09:01:03;;;;;;;30.30;16.05;;;12.60;99.90;;;;;;5063344;28;20123;-71
2022/04/14 09:03:31;;;;;;;31.90;18.50;;;12.60;99.90;;;;;;5052609;28;20033;-71
2022/04/14 09:05:57;;;;;;;28.13;16.30;;;12.50;99.90;;;;;;5057082;28;20063;-71
2022/04/14 09:08:23;;;;;;;;;;;12.50;99.90;;;;;;5059304;28;20036;-72
2022/04/14 09:10:49;;;;;;;30.60;17.30;;;12.50;99.90;;;;;;5066527;28;20035;-71
2022/04/14 09:13:15;;;;;;;28.27;15.55;;;12.70;99.90;;;;;;5076994;28;20633;-72
2022/04/14 09:15:41;;;;;;;;;;;12.90;99.90;;;;;;5063323;28;20068;-72
2022/04/14 09:18:08;;;;;;;25.45;13.93;;;13.00;99.90;;;;;;5064703;28;19924;-71
2022/04/14 09:20:37;;;;;;;30.25;17.80;;;13.10;99.90;;;;;;5060586;28;20090;-72
2022/04/14 09:23:36;;;;;;;29.00;17.13;;;13.30;99.90;;;;;;5057175;28;20420;-71
2022/04/14 09:26:11;;;;;;;35.85;20.10;;;13.30;99.90;;;;;;5041708;28;20147;-71
2022/04/14 09:28:39;;;;;;;31.10;18.60;;;13.30;99.90;;;;;;5061518;28;20040;-71
2022/04/14 09:31:08;;;;;;;27.42;17.08;;;13.20;99.90;;;;;;5060288;28;20045;-70
2022/04/14 09:33:36;;;;;;;33.15;17.33;;;13.50;99.90;;;;;;5062215;28;20032;-71
2022/04/14 09:36:06;;;;;;;30.02;18.48;;;13.60;99.90;;;;;;5059961;28;20038;-71
2022/04/14 09:39:06;;;;;;;31.60;17.52;;;13.60;99.90;;;;;;5063518;28;20159;-71
2022/04/14 09:41:37;;;;;;;32.85;18.98;;;13.80;99.90;;;;;;5061435;28;20032;-68
2022/04/14 09:44:08;;;;;;;28.55;17.73;;;13.80;99.90;;;;;;5059392;28;20665;-70
2022/04/14 09:46:41;;;;;;;27.85;16.58;;;13.80;99.90;;;;;;5056805;28;20040;-69
2022/04/14 09:49:11;;;;;;;30.20;16.80;;;13.70;99.90;;;;;;5058784;28;20035;-69
2022/04/14 09:51:44;;;;;;;25.48;14.93;;;13.80;99.90;;;;;;5060233;28;20047;-69
2022/04/14 09:54:15;;;;;;;27.10;16.27;;;13.80;99.90;;;;;;5059446;28;20040;-69
2022/04/14 09:56:43;;;;;;;25.55;14.88;;;13.80;99.90;;;;;;5060256;28;20068;-69
2022/04/14 09:59:12;;;;;;;32.67;16.88;;;14.00;99.90;;;;;;5061811;28;20049;-69
2022/04/14 10:01:38;;;;;;;26.50;15.68;;;14.20;99.90;;;;;;5061602;28;20098;-69
2022/04/14 10:04:05;;;;;;;25.15;14.55;;;14.10;99.90;;;;;;5058882;28;20028;-66
2022/04/14 10:06:31;;;;;;;25.90;15.80;;;14.10;99.90;;;;;;5059459;28;20048;-67
2022/04/14 10:08:57;;;;;;;;;;;14.30;99.90;;;;;;5063515;28;20090;-68
2022/04/14 10:11:33;;;;;;;29.63;14.55;;;14.50;99.90;;;;;;5063091;28;19951;-67
2022/04/14 10:14:12;;;;;;;21.42;12.90;;;14.70;99.90;;;;;;5057815;28;20043;-68
2022/04/14 10:16:40;;;;;;;22.45;14.82;;;15.00;99.90;;;;;;5064009;28;20044;-67
2022/04/14 10:19:08;;;;;;;26.88;14.15;;;15.30;99.90;;;;;;5062034;28;20040;-67
2022/04/14 10:21:35;;;;;;;22.02;13.00;;;15.20;99.90;;;;;;5062434;28;20074;-68
2022/04/14 10:24:01;;;;;;;19.65;12.73;;;15.30;99.90;;;;;;5061326;28;20101;-68
2022/04/14 10:26:28;;;;;;;;;;;15.30;99.90;;;;;;5060426;28;20044;-68
2022/04/14 10:28:55;;;;;;;19.35;10.70;;;15.30;99.90;;;;;;5061095;28;19920;-67
2022/04/14 10:31:21;;;;;;;19.90;11.85;;;15.20;99.90;;;;;;5053216;28;20101;-68
2022/04/14 10:33:48;;;;;;;26.48;11.52;;;14.90;99.90;;;;;;5059015;28;20123;-68
2022/04/14 10:36:14;;;;;;;20.50;11.38;;;14.80;99.90;;;;;;5058834;28;20106;-68
2022/04/14 10:38:43;;;;;;;;;;;15.00;99.90;;;;;;5062984;28;20029;-68
2022/04/14 10:41:14;;;;;;;18.45;10.13;;;15.10;99.90;;;;;;5062006;28;19962;-68
2022/04/14 10:43:46;;;;;;;16.60;10.35;;;15.10;99.90;;;;;;5060295;28;20091;-68
2022/04/14 10:46:14;;;;;;;14.65;8.48;;;15.10;99.90;;;;;;5061937;28;20099;-68
2022/04/14 10:48:41;;;;;;;16.13;8.60;;;15.20;99.90;;;;;;5062193;28;20043;-68
2022/04/14 10:51:23;;;;;;;21.88;11.68;;;15.40;99.90;;;;;;5063073;28;20051;-68
2022/04/14 10:53:48;;;;;;;19.77;10.23;;;15.20;99.90;;;;;;5046497;28;20553;-68
2022/04/14 10:56:33;;;;;;;;;;;15.20;99.90;;;;;;5063104;28;20036;-68
2022/04/14 10:58:58;;;;;;;17.25;9.30;;;15.20;99.90;;;;;;5042539;28;19916;-68
2022/04/14 11:01:43;;;;;;;;;;;15.50;99.90;;;;;;5052893;28;20059;-68
2022/04/14 11:04:27;;;;;;;10.85;6.25;;;15.70;99.90;;;;;;5058620;28;19969;-68
2022/04/14 11:07:01;;;;;;;12.85;6.78;;;15.60;99.90;;;;;;5058428;28;20045;-70
2022/04/14 11:09:39;;;;;;;12.68;4.70;;;15.50;99.90;;;;;;5061694;28;20048;-70
2022/04/14 11:12:06;;;;;;;12.48;5.28;;;15.50;99.90;;;;;;5061834;28;20040;-69
2022/04/14 11:14:46;;;;;;;10.23;5.43;;;15.60;99.90;;;;;;5082115;28;20041;-70
2022/04/14 11:17:30;;;;;;;6.72;4.60;;;15.60;99.40;;;;;;5060544;28;20041;-70
2022/04/14 11:20:12;;;;;;;10.27;5.50;;;15.50;99.30;;;;;;5059315;28;20074;-69
2022/04/14 11:23:18;;;;;;;9.57;4.82;;;15.60;99.90;;;;;;5061096;28;20689;-71
2022/04/14 11:25:48;;;;;;;9.25;6.00;;;15.90;99.90;;;;;;5059918;28;20556;-72
2022/04/14 11:28:24;;;;;;;12.45;5.63;;;15.80;98.60;;;;;;5060440;28;20033;-67
2022/04/14 11:30:52;;;;;;;11.60;5.22;;;15.80;99.30;;;;;;5060371;28;20044;-70
2022/04/14 11:33:36;;;;;;;10.32;5.15;;;15.90;99.40;;;;;;5060504;28;20047;-69
2022/04/14 11:36:13;;;;;;;10.57;4.75;;;16.30;99.80;;;;;;5060410;28;20040;-68
2022/04/14 11:38:52;;;;;;;11.32;6.05;;;16.40;99.60;;;;;;5061752;28;20691;-68
2022/04/14 11:41:38;;;;;;;9.13;4.72;;;16.60;97.80;;;;;;5062185;28;20036;-68
2022/04/14 11:44:07;;;;;;;5.80;4.60;;;16.80;98.50;;;;;;5059533;28;20033;-68
2022/04/14 11:46:37;;;;;;;9.13;4.68;;;16.60;96.10;;;;;;5056928;28;20049;-69
2022/04/14 11:49:03;;;;;;;8.43;4.20;;;16.50;95.70;;;;;;5037506;28;20070;-70
2022/04/14 11:51:29;;;;;;;6.75;4.10;;;16.60;96.20;;;;;;5076633;28;20046;-71
2022/04/14 11:53:56;;;;;;;;;;;16.70;97.30;;;;;;5064814;28;20036;-69
2022/04/14 11:56:25;;;;;;;9.32;3.83;;;17.00;96.50;;;;;;5058231;28;19952;-69
2022/04/14 11:58:51;;;;;;;7.10;4.82;;;17.20;96.80;;;;;;5045825;28;20069;-69
2022/04/14 12:01:17;;;;;;;9.05;4.95;;;17.00;95.40;;;;;;5041210;28;20627;-69
2022/04/14 12:03:43;;;;;;;8.43;4.60;;;16.80;95.20;;;;;;5045638;28;20048;-68
2022/04/14 12:06:16;;;;;;;10.55;5.60;;;16.70;96.00;;;;;;5059481;28;20068;-69
2022/04/14 12:08:51;;;;;;;9.82;5.57;;;16.60;95.10;;;;;;5060827;28;20033;-69
2022/04/14 12:11:17;;;;;;;9.77;5.07;;;16.60;96.30;;;;;;5059118;28;20531;-68
2022/04/14 12:13:43;;;;;;;11.30;5.32;;;16.40;95.50;;;;;;5060245;28;20040;-69
2022/04/14 12:16:09;;;;;;;;;;;16.50;95.30;;;;;;5064606;28;20040;-68
2022/04/14 12:18:37;;;;;;;9.13;4.23;;;16.60;96.20;;;;;;5061344;28;19917;-69
2022/04/14 12:21:04;;;;;;;8.88;4.85;;;16.70;96.00;;;;;;5062992;28;20102;-68
2022/04/14 12:23:30;;;;;;;9.95;5.50;;;16.80;96.10;;;;;;5052769;28;20036;-67
2022/04/14 12:25:57;;;;;;;8.73;5.05;;;16.60;96.00;;;;;;5061772;28;20053;-69
2022/04/14 12:28:24;;;;;;;6.05;4.03;;;16.60;96.40;;;;;;5062898;28;20777;-69
2022/04/14 12:30:50;;;;;;;8.50;4.03;;;16.70;96.20;;;;;;5060112;28;20048;-69
2022/04/14 12:33:23;;;;;;;;;;;16.90;95.50;;;;;;5062411;28;20484;-69
2022/04/14 12:35:49;;;;;;;8.73;4.78;;;16.80;96.10;;;;;;5064145;28;19923;-69
2022/04/14 12:38:16;;;;;;;;;;;16.70;96.30;;;;;;5065352;28;20037;-69
2022/04/14 12:40:55;;;;;;;10.07;4.75;;;16.50;94.80;;;;;;5064202;28;20021;-70
2022/04/14 12:43:31;;;;;;;11.45;3.88;;;16.50;96.30;;;;;;5063481;28;20044;-70
2022/04/14 12:45:57;;;;;;;9.10;5.00;;;16.50;96.50;;;;;;5060916;28;20041;-69
2022/04/14 12:48:39;;;;;;;;;;;16.40;95.00;;;;;;5058385;28;20797;-69
2022/04/14 12:51:05;;;;;;;6.45;4.32;;;16.30;97.30;;;;;;5058012;28;19942;-69
2022/04/14 12:53:30;;;;;;;;;;;16.50;96.90;;;;;;5059742;28;20089;-69
2022/04/14 12:56:15;;;;;;;9.65;5.25;;;16.30;95.50;;;;;;5060571;28;19916;-71
2022/04/14 12:59:01;;;;;;;9.05;4.97;;;16.10;97.20;;;;;;5060711;28;20488;-69
2022/04/14 13:01:26;;;;;;;20.98;8.43;;;16.20;96.20;;;;;;5061778;28;20467;-64
2022/04/14 13:03:52;;;;;;;11.43;7.20;;;16.10;96.30;;;;;;5061888;28;20033;-69